sensor_id;sensor_type;location;lat;lon;timestamp;pressure;altitude;pressure_sealevel;temperature;humidity
30636;BME280;17400;52.392;9.750;2024-03-08T00:00:17;101593.69;;;4.54;82.12
30636;BME280;17400;52.392;9.750;2024-03-08T00:03:05;101592.13;;;4.51;82.49
30636;BME280;17400;52.392;9.750;2024-03-08T00:05:51;101594.41;;;4.56;83.16
30636;BME280;17400;52.392;9.750;2024-03-08T00:08:39;101593.97;;;4.50;82.43
30636;BME280;17400;52.392;9.750;2024-03-08T00:11:25;101596.94;;;4.47;82.26
30636;BME280;17400;52.392;9.750;2024-03-08T00:14:12;101598.19;;;4.43;82.14
30636;BME280;17400;52.392;9.750;2024-03-08T00:16:58;101591.72;;;4.56;83.84
30636;BME280;17400;52.392;9.750;2024-03-08T00:19:44;101594.28;;;4.57;83.04
30636;BME280;17400;52.392;9.750;2024-03-08T00:22:30;101592.25;;;4.40;82.62
30636;BME280;17400;52.392;9.750;2024-03-08T00:25:18;101598.00;;;4.35;83.10
30636;BME280;17400;52.392;9.750;2024-03-08T00:28:05;101597.16;;;4.34;82.87
30636;BME280;17400;52.392;9.750;2024-03-08T00:30:51;101595.56;;;4.22;83.49
30636;BME280;17400;52.392;9.750;2024-03-08T00:33:37;101590.06;;;4.24;83.36
30636;BME280;17400;52.392;9.750;2024-03-08T00:36:24;101595.59;;;4.32;85.19
30636;BME280;17400;52.392;9.750;2024-03-08T00:39:11;101596.44;;;4.32;83.91
30636;BME280;17400;52.392;9.750;2024-03-08T00:41:59;101589.31;;;4.22;83.47
30636;BME280;17400;52.392;9.750;2024-03-08T00:44:46;101586.97;;;4.28;83.81
30636;BME280;17400;52.392;9.750;2024-03-08T00:47:33;101578.25;;;4.36;84.42
30636;BME280;17400;52.392;9.750;2024-03-08T00:50:19;101581.44;;;4.30;84.29
30636;BME280;17400;52.392;9.750;2024-03-08T00:53:05;101577.97;;;4.39;84.75
30636;BME280;17400;52.392;9.750;2024-03-08T00:55:51;101574.88;;;4.34;85.19
30636;BME280;17400;52.392;9.750;2024-03-08T00:58:39;101567.94;;;4.31;84.47
30636;BME280;17400;52.392;9.750;2024-03-08T01:01:26;101563.41;;;4.32;83.94
30636;BME280;17400;52.392;9.750;2024-03-08T01:04:12;101566.94;;;4.32;84.24
30636;BME280;17400;52.392;9.750;2024-03-08T01:06:59;101563.59;;;4.09;85.01
30636;BME280;17400;52.392;9.750;2024-03-08T01:09:45;101562.34;;;4.13;85.57
30636;BME280;17400;52.392;9.750;2024-03-08T01:12:31;101566.47;;;4.17;86.38
30636;BME280;17400;52.392;9.750;2024-03-08T01:15:19;101552.00;;;3.99;85.55
30636;BME280;17400;52.392;9.750;2024-03-08T01:18:05;101553.16;;;4.06;85.91
30636;BME280;17400;52.392;9.750;2024-03-08T01:20:52;101546.31;;;3.92;85.45
30636;BME280;17400;52.392;9.750;2024-03-08T01:23:38;101537.00;;;3.87;87.60
30636;BME280;17400;52.392;9.750;2024-03-08T01:26:24;101538.59;;;3.99;87.84
30636;BME280;17400;52.392;9.750;2024-03-08T01:29:11;101533.69;;;4.04;87.01
30636;BME280;17400;52.392;9.750;2024-03-08T01:31:59;101532.72;;;4.05;87.02
30636;BME280;17400;52.392;9.750;2024-03-08T01:34:49;101532.25;;;4.00;87.85
30636;BME280;17400;52.392;9.750;2024-03-08T01:37:35;101529.31;;;4.03;87.04
30636;BME280;17400;52.392;9.750;2024-03-08T01:40:21;101522.22;;;4.02;86.29
30636;BME280;17400;52.392;9.750;2024-03-08T01:43:18;101513.81;;;4.07;87.64
30636;BME280;17400;52.392;9.750;2024-03-08T01:46:07;101510.41;;;4.05;86.75
30636;BME280;17400;52.392;9.750;2024-03-08T01:48:56;101513.38;;;4.02;86.60
30636;BME280;17400;52.392;9.750;2024-03-08T01:51:43;101505.19;;;4.03;86.79
30636;BME280;17400;52.392;9.750;2024-03-08T01:54:30;101508.59;;;4.05;86.71
30636;BME280;17400;52.392;9.750;2024-03-08T01:57:17;101503.94;;;4.07;86.75
30636;BME280;17400;52.392;9.750;2024-03-08T02:00:04;101496.63;;;4.09;86.95
30636;BME280;17400;52.392;9.750;2024-03-08T02:02:51;101499.13;;;4.01;86.02
30636;BME280;17400;52.392;9.750;2024-03-08T02:05:40;101494.75;;;4.00;86.99
30636;BME280;17400;52.392;9.750;2024-03-08T02:08:26;101489.38;;;4.00;86.91
30636;BME280;17400;52.392;9.750;2024-03-08T02:11:13;101489.47;;;3.89;86.59
30636;BME280;17400;52.392;9.750;2024-03-08T02:14:01;101488.63;;;3.88;87.05
30636;BME280;17400;52.392;9.750;2024-03-08T02:16:47;101483.13;;;3.90;88.28
30636;BME280;17400;52.392;9.750;2024-03-08T02:19:34;101489.59;;;3.87;87.66
30636;BME280;17400;52.392;9.750;2024-03-08T02:22:22;101490.47;;;3.88;87.45
30636;BME280;17400;52.392;9.750;2024-03-08T02:25:09;101484.25;;;3.87;88.21
30636;BME280;17400;52.392;9.750;2024-03-08T02:27:55;101484.38;;;3.86;88.38
30636;BME280;17400;52.392;9.750;2024-03-08T02:30:41;101476.88;;;3.79;89.04
30636;BME280;17400;52.392;9.750;2024-03-08T02:33:28;101474.47;;;3.76;88.26
30636;BME280;17400;52.392;9.750;2024-03-08T02:36:14;101477.16;;;3.76;88.49
30636;BME280;17400;52.392;9.750;2024-03-08T02:39:03;101471.53;;;3.79;88.74
30636;BME280;17400;52.392;9.750;2024-03-08T02:41:50;101476.88;;;3.79;88.63
30636;BME280;17400;52.392;9.750;2024-03-08T02:44:37;101462.50;;;3.80;88.66
30636;BME280;17400;52.392;9.750;2024-03-08T02:47:23;101467.03;;;3.80;88.77
30636;BME280;17400;52.392;9.750;2024-03-08T02:50:12;101465.03;;;3.72;88.48
30636;BME280;17400;52.392;9.750;2024-03-08T02:53:01;101461.38;;;3.73;89.15
30636;BME280;17400;52.392;9.750;2024-03-08T02:55:49;101460.38;;;3.74;88.97
30636;BME280;17400;52.392;9.750;2024-03-08T02:58:35;101450.75;;;3.72;89.15
30636;BME280;17400;52.392;9.750;2024-03-08T03:01:21;101447.66;;;3.66;89.28
30636;BME280;17400;52.392;9.750;2024-03-08T03:04:07;101444.13;;;3.66;89.26
30636;BME280;17400;52.392;9.750;2024-03-08T03:06:53;101445.00;;;3.66;89.40
30636;BME280;17400;52.392;9.750;2024-03-08T03:09:40;101437.94;;;3.65;90.07
30636;BME280;17400;52.392;9.750;2024-03-08T03:12:27;101435.41;;;3.64;89.68
30636;BME280;17400;52.392;9.750;2024-03-08T03:15:14;101424.78;;;3.62;89.62
30636;BME280;17400;52.392;9.750;2024-03-08T03:18:02;101424.22;;;3.59;89.36
30636;BME280;17400;52.392;9.750;2024-03-08T03:20:48;101429.84;;;3.56;89.39
30636;BME280;17400;52.392;9.750;2024-03-08T03:23:34;101426.47;;;3.54;89.59
30636;BME280;17400;52.392;9.750;2024-03-08T03:26:22;101427.88;;;3.58;90.69
30636;BME280;17400;52.392;9.750;2024-03-08T03:29:09;101426.72;;;3.50;90.08
30636;BME280;17400;52.392;9.750;2024-03-08T03:31:55;101422.09;;;3.53;90.57
30636;BME280;17400;52.392;9.750;2024-03-08T03:34:42;101423.34;;;3.48;90.42
30636;BME280;17400;52.392;9.750;2024-03-08T03:37:29;101422.34;;;3.49;90.63
30636;BME280;17400;52.392;9.750;2024-03-08T03:40:15;101419.22;;;3.44;89.93
30636;BME280;17400;52.392;9.750;2024-03-08T03:43:03;101414.13;;;3.41;90.45
30636;BME280;17400;52.392;9.750;2024-03-08T03:45:51;101423.41;;;3.37;90.55
30636;BME280;17400;52.392;9.750;2024-03-08T03:48:39;101422.84;;;3.33;90.21
30636;BME280;17400;52.392;9.750;2024-03-08T03:51:28;101420.28;;;3.32;90.95
30636;BME280;17400;52.392;9.750;2024-03-08T03:54:15;101415.94;;;3.31;90.94
30636;BME280;17400;52.392;9.750;2024-03-08T03:57:01;101417.59;;;3.32;91.21
30636;BME280;17400;52.392;9.750;2024-03-08T03:59:48;101420.53;;;3.29;90.79
30636;BME280;17400;52.392;9.750;2024-03-08T04:02:37;101419.13;;;3.25;90.85
30636;BME280;17400;52.392;9.750;2024-03-08T04:05:24;101419.84;;;3.27;91.24
30636;BME280;17400;52.392;9.750;2024-03-08T04:08:10;101412.78;;;3.26;90.97
30636;BME280;17400;52.392;9.750;2024-03-08T04:10:56;101417.41;;;3.24;91.59
30636;BME280;17400;52.392;9.750;2024-03-08T04:13:43;101424.00;;;3.20;91.48
30636;BME280;17400;52.392;9.750;2024-03-08T04:16:29;101421.34;;;3.20;91.77
30636;BME280;17400;52.392;9.750;2024-03-08T04:19:18;101417.22;;;3.15;92.04
30636;BME280;17400;52.392;9.750;2024-03-08T04:22:05;101415.66;;;3.13;92.25
30636;BME280;17400;52.392;9.750;2024-03-08T04:24:52;101414.22;;;3.09;92.21
30636;BME280;17400;52.392;9.750;2024-03-08T04:27:38;101407.78;;;3.11;92.02
30636;BME280;17400;52.392;9.750;2024-03-08T04:30:26;101410.00;;;3.06;91.93
30636;BME280;17400;52.392;9.750;2024-03-08T04:33:13;101417.03;;;3.07;92.55
30636;BME280;17400;52.392;9.750;2024-03-08T04:36:03;101408.03;;;3.08;92.18
30636;BME280;17400;52.392;9.750;2024-03-08T04:38:50;101407.59;;;3.03;91.84
30636;BME280;17400;52.392;9.750;2024-03-08T04:41:36;101404.91;;;3.03;91.78
30636;BME280;17400;52.392;9.750;2024-03-08T04:44:23;101401.50;;;3.01;92.58
30636;BME280;17400;52.392;9.750;2024-03-08T04:47:09;101402.63;;;2.98;92.40
30636;BME280;17400;52.392;9.750;2024-03-08T04:49:55;101396.66;;;2.95;92.35
30636;BME280;17400;52.392;9.750;2024-03-08T04:52:44;101400.34;;;2.94;92.60
30636;BME280;17400;52.392;9.750;2024-03-08T04:55:31;101387.81;;;2.94;92.82
30636;BME280;17400;52.392;9.750;2024-03-08T04:58:17;101390.22;;;2.97;92.66
30636;BME280;17400;52.392;9.750;2024-03-08T05:01:04;101383.06;;;2.98;92.78
30636;BME280;17400;52.392;9.750;2024-03-08T05:03:50;101384.81;;;2.88;92.96
30636;BME280;17400;52.392;9.750;2024-03-08T05:06:40;101384.81;;;2.88;93.66
30636;BME280;17400;52.392;9.750;2024-03-08T05:09:28;101388.72;;;2.83;93.99
30636;BME280;17400;52.392;9.750;2024-03-08T05:12:16;101388.19;;;2.90;93.95
30636;BME280;17400;52.392;9.750;2024-03-08T05:15:03;101384.94;;;2.86;94.14
30636;BME280;17400;52.392;9.750;2024-03-08T05:17:50;101383.75;;;2.79;95.03
30636;BME280;17400;52.392;9.750;2024-03-08T05:20:36;101375.16;;;2.75;94.84
30636;BME280;17400;52.392;9.750;2024-03-08T05:23:22;101369.69;;;2.77;95.00
30636;BME280;17400;52.392;9.750;2024-03-08T05:26:10;101375.28;;;2.74;94.89
30636;BME280;17400;52.392;9.750;2024-03-08T05:28:56;101381.47;;;2.74;94.96
30636;BME280;17400;52.392;9.750;2024-03-08T05:31:46;101381.28;;;2.66;96.18
30636;BME280;17400;52.392;9.750;2024-03-08T05:34:33;101382.94;;;2.46;96.86
30636;BME280;17400;52.392;9.750;2024-03-08T05:37:19;101381.03;;;2.37;96.96
30636;BME280;17400;52.392;9.750;2024-03-08T05:40:06;101372.13;;;2.47;97.09
30636;BME280;17400;52.392;9.750;2024-03-08T05:43:02;101375.81;;;2.35;97.83
30636;BME280;17400;52.392;9.750;2024-03-08T05:45:50;101380.56;;;2.31;98.05
30636;BME280;17400;52.392;9.750;2024-03-08T05:48:36;101373.47;;;2.42;98.51
30636;BME280;17400;52.392;9.750;2024-03-08T05:51:23;101380.16;;;2.47;99.33
30636;BME280;17400;52.392;9.750;2024-03-08T05:54:11;101371.66;;;2.42;97.58
30636;BME280;17400;52.392;9.750;2024-03-08T05:57:02;101375.72;;;2.58;97.90
30636;BME280;17400;52.392;9.750;2024-03-08T05:59:49;101373.25;;;2.45;97.73
30636;BME280;17400;52.392;9.750;2024-03-08T06:02:36;101367.56;;;2.59;97.52
30636;BME280;17400;52.392;9.750;2024-03-08T06:05:25;101368.72;;;2.45;97.13
30636;BME280;17400;52.392;9.750;2024-03-08T06:08:11;101373.88;;;2.37;97.41
30636;BME280;17400;52.392;9.750;2024-03-08T06:10:59;101367.88;;;2.12;99.35
30636;BME280;17400;52.392;9.750;2024-03-08T06:13:48;101375.88;;;2.12;99.98
30636;BME280;17400;52.392;9.750;2024-03-08T06:16:36;101379.09;;;1.95;100.00
30636;BME280;17400;52.392;9.750;2024-03-08T06:19:23;101370.00;;;1.86;100.00
30636;BME280;17400;52.392;9.750;2024-03-08T06:22:10;101370.81;;;1.98;100.00
30636;BME280;17400;52.392;9.750;2024-03-08T06:24:56;101368.13;;;2.09;100.00
30636;BME280;17400;52.392;9.750;2024-03-08T06:27:43;101367.25;;;2.09;100.00
30636;BME280;17400;52.392;9.750;2024-03-08T06:30:30;101371.31;;;1.92;100.00
30636;BME280;17400;52.392;9.750;2024-03-08T06:33:19;101367.31;;;1.86;100.00
30636;BME280;17400;52.392;9.750;2024-03-08T06:36:05;101361.84;;;1.99;100.00
30636;BME280;17400;52.392;9.750;2024-03-08T06:38:52;101363.00;;;2.17;100.00
30636;BME280;17400;52.392;9.750;2024-03-08T06:41:40;101362.53;;;2.01;100.00
30636;BME280;17400;52.392;9.750;2024-03-08T06:44:29;101360.66;;;2.24;100.00
30636;BME280;17400;52.392;9.750;2024-03-08T06:47:15;101369.63;;;2.35;100.00
30636;BME280;17400;52.392;9.750;2024-03-08T06:50:03;101367.75;;;2.46;99.82
30636;BME280;17400;52.392;9.750;2024-03-08T06:52:50;101363.19;;;2.37;100.00
30636;BME280;17400;52.392;9.750;2024-03-08T06:55:38;101359.63;;;2.37;100.00
30636;BME280;17400;52.392;9.750;2024-03-08T06:58:24;101360.31;;;2.29;100.00
30636;BME280;17400;52.392;9.750;2024-03-08T07:01:10;101357.56;;;2.40;100.00
30636;BME280;17400;52.392;9.750;2024-03-08T07:03:59;101362.44;;;2.03;100.00
30636;BME280;17400;52.392;9.750;2024-03-08T07:06:51;101368.81;;;2.23;100.00
30636;BME280;17400;52.392;9.750;2024-03-08T07:09:38;101366.19;;;2.44;100.00
30636;BME280;17400;52.392;9.750;2024-03-08T07:12:25;101364.16;;;2.36;100.00
30636;BME280;17400;52.392;9.750;2024-03-08T07:15:12;101370.34;;;2.37;100.00
30636;BME280;17400;52.392;9.750;2024-03-08T07:18:00;101368.72;;;2.45;100.00
30636;BME280;17400;52.392;9.750;2024-03-08T07:20:47;101370.31;;;2.48;100.00
30636;BME280;17400;52.392;9.750;2024-03-08T07:23:35;101371.56;;;2.65;100.00
30636;BME280;17400;52.392;9.750;2024-03-08T07:26:48;101367.50;;;2.71;99.20
30636;BME280;17400;52.392;9.750;2024-03-08T07:29:37;101366.13;;;2.76;99.02
30636;BME280;17400;52.392;9.750;2024-03-08T07:32:23;101354.34;;;3.00;98.19
30636;BME280;17400;52.392;9.750;2024-03-08T07:35:10;101360.47;;;3.12;96.00
30636;BME280;17400;52.392;9.750;2024-03-08T07:37:56;101349.88;;;3.10;96.31
30636;BME280;17400;52.392;9.750;2024-03-08T07:40:46;101351.28;;;3.36;95.78
30636;BME280;17400;52.392;9.750;2024-03-08T07:43:32;101345.13;;;3.14;95.91
30636;BME280;17400;52.392;9.750;2024-03-08T07:46:19;101337.69;;;3.17;94.79
30636;BME280;17400;52.392;9.750;2024-03-08T07:49:05;101339.75;;;3.35;94.39
30636;BME280;17400;52.392;9.750;2024-03-08T07:51:56;101346.94;;;3.13;94.90
30636;BME280;17400;52.392;9.750;2024-03-08T07:54:42;101341.25;;;3.28;95.32
30636;BME280;17400;52.392;9.750;2024-03-08T07:57:30;101342.56;;;3.33;94.88
30636;BME280;17400;52.392;9.750;2024-03-08T08:00:17;101332.78;;;3.63;92.63
30636;BME280;17400;52.392;9.750;2024-03-08T08:03:03;101330.19;;;3.42;92.82
30636;BME280;17400;52.392;9.750;2024-03-08T08:05:50;101327.72;;;3.60;91.87
30636;BME280;17400;52.392;9.750;2024-03-08T08:08:36;101334.09;;;3.38;92.02
30636;BME280;17400;52.392;9.750;2024-03-08T08:11:22;101322.78;;;3.65;93.13
30636;BME280;17400;52.392;9.750;2024-03-08T08:14:10;101328.59;;;3.40;91.98
30636;BME280;17400;52.392;9.750;2024-03-08T08:16:57;101328.16;;;3.75;92.03
30636;BME280;17400;52.392;9.750;2024-03-08T08:19:45;101322.88;;;3.54;91.72
30636;BME280;17400;52.392;9.750;2024-03-08T08:22:32;101331.94;;;3.63;91.93
30636;BME280;17400;52.392;9.750;2024-03-08T08:25:18;101327.44;;;3.63;91.76
30636;BME280;17400;52.392;9.750;2024-03-08T08:28:05;101326.06;;;3.79;91.45
30636;BME280;17400;52.392;9.750;2024-03-08T08:30:52;101320.75;;;4.08;89.18
30636;BME280;17400;52.392;9.750;2024-03-08T08:33:39;101324.84;;;4.32;87.36
30636;BME280;17400;52.392;9.750;2024-03-08T08:36:25;101318.78;;;4.40;86.38
30636;BME280;17400;52.392;9.750;2024-03-08T08:39:11;101327.25;;;4.45;86.17
30636;BME280;17400;52.392;9.750;2024-03-08T08:41:59;101311.72;;;4.58;84.71
30636;BME280;17400;52.392;9.750;2024-03-08T08:44:45;101305.09;;;4.43;85.73
30636;BME280;17400;52.392;9.750;2024-03-08T08:47:32;101320.19;;;4.54;84.61
30636;BME280;17400;52.392;9.750;2024-03-08T08:50:19;101303.97;;;4.45;86.01
30636;BME280;17400;52.392;9.750;2024-03-08T08:53:08;101297.88;;;4.53;83.25
30636;BME280;17400;52.392;9.750;2024-03-08T08:55:54;101315.94;;;4.61;84.77
30636;BME280;17400;52.392;9.750;2024-03-08T08:58:42;101306.09;;;4.52;83.98
30636;BME280;17400;52.392;9.750;2024-03-08T09:01:28;101296.63;;;4.38;85.69
30636;BME280;17400;52.392;9.750;2024-03-08T09:04:15;101296.78;;;4.36;85.16
30636;BME280;17400;52.392;9.750;2024-03-08T09:07:02;101303.78;;;4.66;84.40
30636;BME280;17400;52.392;9.750;2024-03-08T09:09:51;101294.31;;;4.82;83.49
30636;BME280;17400;52.392;9.750;2024-03-08T09:12:42;101283.59;;;4.82;83.21
30636;BME280;17400;52.392;9.750;2024-03-08T09:15:28;101280.28;;;4.98;81.01
30636;BME280;17400;52.392;9.750;2024-03-08T09:18:14;101277.75;;;4.96;81.27
30636;BME280;17400;52.392;9.750;2024-03-08T09:21:02;101277.38;;;5.19;80.30
30636;BME280;17400;52.392;9.750;2024-03-08T09:23:48;101274.38;;;5.50;77.23
30636;BME280;17400;52.392;9.750;2024-03-08T09:26:34;101270.13;;;5.57;77.22
30636;BME280;17400;52.392;9.750;2024-03-08T09:29:21;101265.84;;;5.82;75.49
30636;BME280;17400;52.392;9.750;2024-03-08T09:32:08;101263.84;;;5.66;74.44
30636;BME280;17400;52.392;9.750;2024-03-08T09:34:54;101266.66;;;5.47;74.72
30636;BME280;17400;52.392;9.750;2024-03-08T09:37:42;101251.41;;;5.65;75.17
30636;BME280;17400;52.392;9.750;2024-03-08T09:40:28;101252.00;;;5.59;74.78
30636;BME280;17400;52.392;9.750;2024-03-08T09:43:14;101247.69;;;5.48;75.66
30636;BME280;17400;52.392;9.750;2024-03-08T09:46:00;101239.28;;;5.79;75.37
30636;BME280;17400;52.392;9.750;2024-03-08T09:48:46;101227.97;;;6.04;73.36
30636;BME280;17400;52.392;9.750;2024-03-08T09:51:34;101221.09;;;5.91;71.32
30636;BME280;17400;52.392;9.750;2024-03-08T09:54:23;101226.72;;;5.98;70.87
30636;BME280;17400;52.392;9.750;2024-03-08T09:57:10;101221.19;;;5.81;71.58
30636;BME280;17400;52.392;9.750;2024-03-08T09:59:56;101212.94;;;5.83;71.87
30636;BME280;17400;52.392;9.750;2024-03-08T10:02:45;101208.59;;;6.00;71.75
30636;BME280;17400;52.392;9.750;2024-03-08T10:05:31;101205.22;;;6.16;71.53
30636;BME280;17400;52.392;9.750;2024-03-08T10:08:18;101199.97;;;5.96;71.65
30636;BME280;17400;52.392;9.750;2024-03-08T10:11:06;101201.31;;;5.74;71.32
30636;BME280;17400;52.392;9.750;2024-03-08T10:13:54;101193.31;;;5.64;71.13
30636;BME280;17400;52.392;9.750;2024-03-08T10:16:41;101194.38;;;5.90;71.56
30636;BME280;17400;52.392;9.750;2024-03-08T10:19:27;101182.44;;;6.02;69.39
30636;BME280;17400;52.392;9.750;2024-03-08T10:22:15;101188.03;;;6.09;70.48
30636;BME280;17400;52.392;9.750;2024-03-08T10:25:01;101172.13;;;6.15;69.58
30636;BME280;17400;52.392;9.750;2024-03-08T10:27:51;101176.91;;;6.04;69.35
30636;BME280;17400;52.392;9.750;2024-03-08T10:30:37;101167.25;;;6.19;69.83
30636;BME280;17400;52.392;9.750;2024-03-08T10:33:23;101162.13;;;6.26;69.97
30636;BME280;17400;52.392;9.750;2024-03-08T10:36:11;101161.84;;;6.37;70.85
30636;BME280;17400;52.392;9.750;2024-03-08T10:39:00;101158.31;;;6.37;69.84
30636;BME280;17400;52.392;9.750;2024-03-08T10:41:52;101167.94;;;6.47;71.23
30636;BME280;17400;52.392;9.750;2024-03-08T10:44:49;101149.88;;;6.58;69.34
30636;BME280;17400;52.392;9.750;2024-03-08T10:47:41;101155.09;;;6.67;70.12
30636;BME280;17400;52.392;9.750;2024-03-08T10:50:28;101158.31;;;6.37;70.01
30636;BME280;17400;52.392;9.750;2024-03-08T10:53:17;101155.88;;;6.52;70.84
30636;BME280;17400;52.392;9.750;2024-03-08T10:56:06;101164.31;;;6.57;70.53
30636;BME280;17400;52.392;9.750;2024-03-08T10:58:53;101160.22;;;6.79;71.37
30636;BME280;17400;52.392;9.750;2024-03-08T11:01:42;101150.94;;;6.73;69.84
30636;BME280;17400;52.392;9.750;2024-03-08T11:04:28;101151.00;;;6.90;69.49
30636;BME280;17400;52.392;9.750;2024-03-08T11:07:15;101139.75;;;6.60;69.57
30636;BME280;17400;52.392;9.750;2024-03-08T11:10:17;101140.34;;;6.80;71.05
30636;BME280;17400;52.392;9.750;2024-03-08T11:13:34;101129.03;;;6.68;69.88
30636;BME280;17400;52.392;9.750;2024-03-08T11:16:37;101126.56;;;6.75;70.20
30636;BME280;17400;52.392;9.750;2024-03-08T11:19:26;101121.41;;;6.90;70.05
30636;BME280;17400;52.392;9.750;2024-03-08T11:22:21;101126.63;;;6.99;71.08
30636;BME280;17400;52.392;9.750;2024-03-08T11:25:31;101104.47;;;7.06;70.38
30636;BME280;17400;52.392;9.750;2024-03-08T11:28:19;101097.19;;;6.98;70.37
30636;BME280;17400;52.392;9.750;2024-03-08T11:31:24;101088.25;;;6.89;71.47
30636;BME280;17400;52.392;9.750;2024-03-08T11:34:15;101093.31;;;6.92;71.75
30636;BME280;17400;52.392;9.750;2024-03-08T11:37:04;101076.81;;;6.79;71.98
30636;BME280;17400;52.392;9.750;2024-03-08T11:39:52;101082.38;;;6.86;72.68
30636;BME280;17400;52.392;9.750;2024-03-08T11:42:44;101073.63;;;6.92;73.71
30636;BME280;17400;52.392;9.750;2024-03-08T11:45:34;101067.13;;;7.03;72.47
30636;BME280;17400;52.392;9.750;2024-03-08T11:48:22;101060.69;;;7.04;72.37
30636;BME280;17400;52.392;9.750;2024-03-08T11:51:09;101043.03;;;7.01;73.42
30636;BME280;17400;52.392;9.750;2024-03-08T11:53:56;101049.44;;;7.08;73.61
30636;BME280;17400;52.392;9.750;2024-03-08T11:56:44;101039.66;;;6.99;73.93
30636;BME280;17400;52.392;9.750;2024-03-08T11:59:32;101030.94;;;7.13;74.90
30636;BME280;17400;52.392;9.750;2024-03-08T12:02:18;101031.13;;;7.28;74.27
30636;BME280;17400;52.392;9.750;2024-03-08T12:05:06;101024.38;;;7.41;72.19
30636;BME280;17400;52.392;9.750;2024-03-08T12:07:56;101029.44;;;7.60;72.20
30636;BME280;17400;52.392;9.750;2024-03-08T12:10:42;101023.22;;;7.35;69.07
30636;BME280;17400;52.392;9.750;2024-03-08T12:13:30;101011.94;;;7.48;68.00
30636;BME280;17400;52.392;9.750;2024-03-08T12:16:17;101011.56;;;7.76;67.81
30636;BME280;17400;52.392;9.750;2024-03-08T12:19:06;100997.38;;;7.90;65.80
30636;BME280;17400;52.392;9.750;2024-03-08T12:21:55;100997.84;;;8.02;64.52
30636;BME280;17400;52.392;9.750;2024-03-08T12:24:41;100983.78;;;8.23;64.26
30636;BME280;17400;52.392;9.750;2024-03-08T12:27:29;100990.34;;;8.29;63.72
30636;BME280;17400;52.392;9.750;2024-03-08T12:30:19;100975.91;;;8.53;63.75
30636;BME280;17400;52.392;9.750;2024-03-08T12:33:05;100975.50;;;8.64;62.83
30636;BME280;17400;52.392;9.750;2024-03-08T12:35:55;100976.44;;;8.80;60.40
30636;BME280;17400;52.392;9.750;2024-03-08T12:38:45;100962.81;;;8.96;58.62
30636;BME280;17400;52.392;9.750;2024-03-08T12:41:39;100948.53;;;9.11;56.44
30636;BME280;17400;52.392;9.750;2024-03-08T12:44:25;100963.78;;;9.04;57.95
30636;BME280;17400;52.392;9.750;2024-03-08T12:47:13;100957.19;;;9.06;59.36
30636;BME280;17400;52.392;9.750;2024-03-08T12:49:59;100959.13;;;9.12;59.57
30636;BME280;17400;52.392;9.750;2024-03-08T12:52:46;100950.81;;;9.22;59.53
30636;BME280;17400;52.392;9.750;2024-03-08T12:55:37;100941.03;;;9.36;59.26
30636;BME280;17400;52.392;9.750;2024-03-08T12:58:24;100946.06;;;9.39;58.92
30636;BME280;17400;52.392;9.750;2024-03-08T13:01:11;100926.13;;;9.40;58.58
30636;BME280;17400;52.392;9.750;2024-03-08T13:03:58;100935.63;;;9.36;58.50
30636;BME280;17400;52.392;9.750;2024-03-08T13:06:45;100930.91;;;9.38;59.45
30636;BME280;17400;52.392;9.750;2024-03-08T13:09:39;100917.19;;;9.55;58.25
30636;BME280;17400;52.392;9.750;2024-03-08T13:12:29;100904.63;;;9.47;57.42
30636;BME280;17400;52.392;9.750;2024-03-08T13:15:15;100908.06;;;9.56;57.17
30636;BME280;17400;52.392;9.750;2024-03-08T13:18:05;100901.09;;;9.61;56.30
30636;BME280;17400;52.392;9.750;2024-03-08T13:20:53;100908.38;;;9.61;55.79
30636;BME280;17400;52.392;9.750;2024-03-08T13:23:40;100900.59;;;9.58;55.57
30636;BME280;17400;52.392;9.750;2024-03-08T13:26:30;100897.06;;;9.72;55.76
30636;BME280;17400;52.392;9.750;2024-03-08T13:29:19;100890.81;;;9.87;55.61
30636;BME280;17400;52.392;9.750;2024-03-08T13:32:06;100890.38;;;9.83;54.02
30636;BME280;17400;52.392;9.750;2024-03-08T13:34:53;100889.59;;;9.89;54.08
30636;BME280;17400;52.392;9.750;2024-03-08T13:37:41;100889.06;;;9.94;54.23
30636;BME280;17400;52.392;9.750;2024-03-08T13:40:28;100883.34;;;10.04;54.15
30636;BME280;17400;52.392;9.750;2024-03-08T13:43:16;100877.16;;;10.10;53.62
30636;BME280;17400;52.392;9.750;2024-03-08T13:46:04;100880.91;;;10.09;53.06
30636;BME280;17400;52.392;9.750;2024-03-08T13:48:51;100863.47;;;10.33;53.82
30636;BME280;17400;52.392;9.750;2024-03-08T13:51:39;100873.44;;;10.47;54.23
30636;BME280;17400;52.392;9.750;2024-03-08T13:54:26;100878.41;;;10.65;52.53
30636;BME280;17400;52.392;9.750;2024-03-08T13:57:16;100864.78;;;10.37;51.79
30636;BME280;17400;52.392;9.750;2024-03-08T14:00:04;100860.97;;;10.31;52.19
30636;BME280;17400;52.392;9.750;2024-03-08T14:02:53;100859.47;;;10.07;51.88
30636;BME280;17400;52.392;9.750;2024-03-08T14:05:39;100846.31;;;10.04;52.20
30636;BME280;17400;52.392;9.750;2024-03-08T14:08:27;100843.06;;;9.79;52.50
30636;BME280;17400;52.392;9.750;2024-03-08T14:11:13;100830.53;;;9.56;53.30
30636;BME280;17400;52.392;9.750;2024-03-08T14:14:00;100821.13;;;9.37;53.85
30636;BME280;17400;52.392;9.750;2024-03-08T14:16:47;100837.88;;;9.32;54.11
30636;BME280;17400;52.392;9.750;2024-03-08T14:19:35;100817.50;;;9.15;55.24
30636;BME280;17400;52.392;9.750;2024-03-08T14:22:21;100820.19;;;9.15;54.96
30636;BME280;17400;52.392;9.750;2024-03-08T14:25:09;100817.72;;;8.90;55.08
30636;BME280;17400;52.392;9.750;2024-03-08T14:28:03;100816.59;;;8.84;55.50
30636;BME280;17400;52.392;9.750;2024-03-08T14:30:52;100801.38;;;8.92;55.89
30636;BME280;17400;52.392;9.750;2024-03-08T14:33:38;100809.09;;;8.95;56.43
30636;BME280;17400;52.392;9.750;2024-03-08T14:36:28;100794.72;;;8.79;56.13
30636;BME280;17400;52.392;9.750;2024-03-08T14:39:14;100797.78;;;8.76;56.52
30636;BME280;17400;52.392;9.750;2024-03-08T14:42:00;100810.88;;;8.64;57.02
30636;BME280;17400;52.392;9.750;2024-03-08T14:44:49;100788.91;;;8.67;56.72
30636;BME280;17400;52.392;9.750;2024-03-08T14:47:37;100816.00;;;8.59;56.76